createdAt,value
2023-03-18T02:16:27.356Z,25.20
2023-03-18T02:18:56.389Z,25.75
2023-03-18T02:21:29.592Z,25.42
2023-03-18T02:24:01.225Z,29.30
2023-03-18T02:26:31.626Z,26.58
2023-03-18T02:29:04.675Z,30.98
2023-03-18T02:31:33.038Z,26.52
2023-03-18T02:34:01.142Z,28.00
2023-03-18T02:36:29.451Z,27.10
2023-03-18T02:38:57.755Z,30.30
2023-03-18T02:41:25.813Z,29.73
2023-03-18T02:43:53.724Z,29.30
2023-03-18T02:46:28.703Z,23.15
2023-03-18T02:48:56.577Z,24.67
2023-03-18T02:51:24.769Z,26.63
2023-03-18T02:53:52.826Z,30.65
2023-03-18T02:56:20.205Z,35.53
2023-03-18T02:58:47.992Z,28.20
2023-03-18T03:01:16.573Z,35.10
2023-03-18T03:03:45.524Z,33.95
2023-03-18T03:06:13.066Z,35.65
2023-03-18T03:08:41.243Z,39.78
2023-03-18T03:11:10.208Z,31.90
2023-03-18T03:13:37.763Z,31.98
2023-03-18T03:16:05.485Z,35.08
2023-03-18T03:18:32.878Z,33.47
2023-03-18T03:21:01.868Z,34.28
2023-03-18T03:23:29.432Z,30.10
2023-03-18T03:25:57.811Z,36.33
2023-03-18T03:28:25.309Z,34.15
2023-03-18T03:30:52.991Z,34.00
2023-03-18T03:33:20.692Z,37.13
2023-03-18T03:35:48.171Z,34.35
2023-03-18T03:38:16.993Z,32.72
2023-03-18T03:40:44.960Z,33.90
2023-03-18T03:43:13.773Z,32.50
2023-03-18T03:45:41.954Z,34.57
2023-03-18T03:48:09.426Z,37.40
2023-03-18T03:50:37.034Z,32.63
2023-03-18T03:53:05.058Z,37.55
2023-03-18T03:55:33.845Z,34.45
2023-03-18T03:58:01.731Z,37.60
2023-03-18T04:00:29.487Z,38.00
2023-03-18T04:02:57.020Z,33.08
2023-03-18T04:05:25.471Z,32.42
2023-03-18T04:07:53.632Z,28.85
2023-03-18T04:10:22.539Z,33.65
2023-03-18T04:12:51.433Z,31.23
2023-03-18T04:15:19.684Z,30.47
2023-03-18T04:17:47.333Z,33.42
2023-03-18T04:20:15.164Z,30.23
2023-03-18T04:22:42.829Z,33.45
2023-03-18T04:25:12.060Z,36.33
2023-03-18T04:27:39.899Z,34.30
2023-03-18T04:30:10.308Z,29.35
2023-03-18T04:32:37.830Z,35.45
2023-03-18T04:35:05.778Z,32.42
2023-03-18T04:37:36.992Z,35.35
2023-03-18T04:40:06.207Z,32.75
2023-03-18T04:42:33.665Z,32.05
2023-03-18T04:45:01.832Z,31.33
2023-03-18T04:47:32.469Z,31.88
2023-03-18T04:50:00.116Z,32.90
2023-03-18T04:52:27.742Z,31.58
2023-03-18T04:54:55.530Z,35.75
2023-03-18T04:57:23.234Z,34.25
2023-03-18T04:59:50.848Z,31.10
2023-03-18T05:02:18.290Z,31.45
2023-03-18T05:04:47.150Z,33.70
2023-03-18T05:07:15.673Z,31.48
2023-03-18T05:09:43.590Z,31.17
2023-03-18T05:12:13.334Z,33.97
2023-03-18T05:17:08.757Z,27.52
2023-03-18T05:19:36.865Z,31.40
2023-03-18T05:22:05.694Z,27.52
2023-03-18T05:24:33.070Z,21.93
2023-03-18T05:27:00.514Z,32.22
2023-03-18T05:29:27.994Z,41.90
2023-03-18T05:31:55.548Z,40.60
2023-03-18T05:34:23.059Z,39.17
2023-03-18T05:36:50.966Z,35.08
2023-03-18T05:39:19.799Z,36.08
2023-03-18T05:41:47.226Z,40.03
2023-03-18T05:44:14.734Z,41.42
2023-03-18T05:46:42.363Z,38.35
2023-03-18T05:49:10.278Z,36.45
2023-03-18T05:51:37.882Z,37.67
2023-03-18T05:54:05.727Z,33.92
2023-03-18T05:56:34.865Z,36.38
2023-03-18T05:59:03.388Z,34.47
2023-03-18T06:01:31.507Z,39.55
2023-03-18T06:03:59.124Z,32.17
2023-03-18T06:06:26.621Z,32.13
2023-03-18T06:08:56.196Z,40.47
2023-03-18T06:11:24.401Z,31.58
2023-03-18T06:13:53.251Z,32.55
2023-03-18T06:16:20.854Z,33.13
2023-03-18T06:18:49.050Z,36.17
2023-03-18T15:27:38.134Z,5.75
2023-03-18T15:30:06.670Z,5.38
2023-03-18T15:32:35.212Z,5.07
2023-03-18T15:35:08.466Z,6.40
2023-03-18T15:37:40.369Z,5.05
2023-03-18T15:40:29.828Z,5.15
2023-03-18T15:45:28.394Z,5.45
2023-03-18T15:47:56.350Z,5.35
2023-03-18T15:50:29.057Z,6.18
2023-03-18T15:53:03.604Z,3.25
2023-03-18T15:55:33.205Z,3.63
2023-03-18T15:58:01.096Z,3.45
2023-03-18T16:00:30.441Z,4.47
2023-03-18T16:02:59.556Z,6.88
2023-03-18T16:05:28.893Z,5.57
2023-03-18T16:07:56.953Z,6.88
2023-03-18T16:10:26.378Z,6.38
2023-03-18T16:12:54.908Z,4.93
2023-03-18T16:15:24.172Z,5.28
2023-03-18T16:17:54.314Z,4.15
2023-03-18T16:20:22.779Z,4.32
2023-03-18T16:22:50.892Z,5.80
2023-03-18T16:25:18.379Z,2.65
2023-03-18T16:27:46.799Z,4.75
2023-03-18T16:30:18.773Z,3.17
2023-03-18T16:32:46.622Z,5.32
2023-03-18T16:35:16.790Z,3.38
2023-03-18T16:37:44.771Z,2.80
2023-03-18T16:40:16.134Z,5.18
2023-03-18T16:42:43.955Z,3.80
2023-03-18T16:45:14.706Z,4.40
2023-03-18T16:47:42.413Z,4.40
2023-03-18T16:50:17.258Z,5.75
2023-03-18T16:52:44.738Z,2.90
2023-03-18T16:55:16.357Z,5.03
2023-03-18T16:57:44.775Z,6.28
2023-03-18T17:00:19.349Z,3.83
2023-03-18T17:02:47.337Z,3.72
2023-03-18T17:05:17.360Z,6.70
2023-03-18T17:07:44.881Z,3.03
2023-03-18T17:10:12.767Z,2.60
2023-03-18T17:12:41.252Z,3.05
2023-03-18T17:15:09.657Z,2.78
2023-03-18T17:17:37.578Z,2.90
2023-03-18T17:20:06.046Z,1.77
2023-03-18T17:22:35.088Z,4.47
2023-03-18T17:25:02.734Z,4.90
2023-03-18T17:27:32.484Z,2.80
2023-03-18T17:29:59.937Z,1.50
2023-03-18T17:32:27.377Z,5.35
2023-03-18T17:34:55.626Z,2.75
2023-03-18T17:37:23.788Z,2.75
2023-03-18T17:39:52.581Z,2.55
2023-03-18T17:42:29.452Z,1.98
2023-03-18T17:44:57.557Z,1.58
2023-03-18T17:47:24.972Z,5.25
2023-03-18T17:49:52.484Z,1.92
2023-03-18T17:52:20.946Z,2.70
2023-03-18T17:54:48.450Z,4.18
2023-03-18T17:57:17.610Z,5.05
2023-03-18T17:59:45.941Z,3.55
2023-03-18T18:02:15.493Z,3.05
2023-03-18T18:04:43.277Z,4.05
2023-03-18T18:07:16.674Z,2.42
2023-03-18T18:09:44.110Z,2.85
2023-03-18T18:12:15.432Z,2.50
2023-03-18T18:14:44.187Z,3.15
2023-03-18T18:17:13.644Z,2.30
2023-03-18T18:19:41.162Z,4.18
2023-03-18T18:22:11.397Z,4.63
2023-03-18T18:24:39.096Z,4.15
2023-03-18T18:27:06.774Z,5.30
2023-03-18T18:29:35.143Z,4.28
2023-03-18T18:32:04.383Z,3.78
2023-03-18T18:34:31.961Z,3.55
2023-03-18T18:36:59.666Z,5.45
2023-03-18T18:39:27.127Z,3.13
2023-03-18T18:41:54.616Z,4.82
2023-03-18T18:44:22.377Z,3.58
2023-03-18T18:46:49.804Z,5.00
2023-03-18T18:49:23.051Z,4.00
2023-03-18T18:51:53.182Z,4.53
2023-03-18T18:54:20.572Z,6.32
2023-03-18T18:56:48.138Z,3.60
2023-03-18T18:59:22.230Z,9.38
2023-03-18T19:01:50.337Z,5.45
2023-03-18T19:04:19.194Z,3.60
2023-03-18T19:06:48.276Z,4.00
2023-03-18T19:09:17.169Z,4.68
2023-03-18T19:11:44.657Z,3.33
2023-03-18T19:14:17.426Z,3.78
2023-03-18T19:16:45.263Z,6.75
2023-03-18T19:19:14.869Z,5.07
2023-03-18T19:24:25.595Z,5.32
2023-03-18T19:26:53.332Z,3.88
2023-03-18T19:29:21.045Z,5.72
2023-03-18T19:31:48.476Z,6.55
2023-03-18T19:34:17.167Z,6.38
2023-03-18T19:36:44.876Z,4.53
2023-03-18T19:39:14.217Z,8.55
2023-03-18T19:41:43.069Z,8.98
2023-03-18T19:44:16.591Z,5.70
2023-03-18T19:46:44.372Z,10.77
2023-03-18T19:49:16.800Z,6.57
2023-03-18T19:51:44.690Z,8.43
2023-03-18T19:54:22.662Z,10.23
2023-03-18T19:56:52.511Z,11.10
2023-03-18T19:59:20.823Z,8.25
2023-03-18T20:05:23.139Z,8.85
2023-03-18T20:07:50.870Z,11.15
2023-03-18T20:10:19.011Z,9.35
2023-03-18T20:12:48.511Z,9.68
2023-03-18T20:15:17.275Z,10.48
2023-03-18T20:17:45.452Z,10.33
2023-03-18T20:20:14.374Z,10.77
2023-03-18T20:22:43.104Z,12.30
2023-03-18T20:25:16.895Z,14.95
2023-03-18T20:27:44.337Z,10.20
2023-03-18T20:30:21.709Z,11.48
2023-03-18T20:32:49.106Z,10.57
2023-03-18T20:35:16.794Z,12.02
2023-03-18T20:37:44.377Z,11.70
2023-03-18T20:40:18.477Z,10.35
2023-03-18T20:42:46.009Z,11.77
2023-03-18T20:45:15.697Z,8.48
2023-03-18T20:47:44.622Z,9.02
2023-03-18T20:50:13.529Z,8.30
2023-03-18T20:52:43.680Z,9.60
2023-03-18T20:55:22.134Z,9.65
2023-03-18T20:57:49.885Z,9.32
2023-03-18T21:00:19.531Z,7.35
2023-03-18T21:05:15.690Z,7.53
2023-03-18T21:07:43.708Z,8.80
2023-03-18T21:10:16.034Z,7.47
2023-03-18T21:12:43.524Z,8.52
2023-03-18T21:15:15.355Z,8.05
2023-03-18T21:17:42.861Z,6.68
2023-03-18T21:20:21.710Z,4.90
2023-03-18T21:22:51.836Z,5.68
2023-03-18T21:25:20.339Z,6.45
2023-03-18T21:27:48.249Z,4.22
2023-03-18T21:30:16.540Z,7.35
2023-03-18T21:32:44.899Z,7.18
2023-03-18T21:35:17.341Z,6.03
2023-03-18T21:37:44.763Z,6.10
2023-03-18T21:40:17.029Z,5.50
2023-03-18T21:42:44.596Z,5.93
2023-03-18T21:45:12.505Z,4.93
2023-03-18T21:47:39.910Z,6.45
2023-03-18T21:50:07.910Z,7.82
2023-03-18T21:52:36.218Z,7.20
2023-03-18T21:55:04.824Z,7.47
2023-03-18T21:57:33.823Z,6.30
2023-03-18T22:00:01.280Z,5.95
2023-03-18T22:02:29.461Z,8.77
2023-03-18T22:04:58.654Z,6.50
2023-03-18T22:07:27.015Z,9.90
2023-03-18T22:09:54.723Z,6.53
2023-03-18T22:12:23.903Z,8.27
2023-03-18T22:14:53.010Z,7.30
2023-03-18T22:17:21.726Z,6.55
2023-03-18T22:19:49.361Z,8.38
2023-03-18T22:22:17.791Z,7.00
2023-03-18T22:24:45.595Z,7.85
2023-03-18T22:27:20.228Z,5.28
2023-03-18T22:29:48.121Z,7.28
2023-03-18T22:32:23.532Z,6.53
2023-03-18T22:34:51.298Z,5.85
2023-03-18T22:37:20.802Z,6.38
2023-03-18T22:39:48.261Z,7.55
2023-03-18T22:42:16.727Z,8.60
2023-03-18T22:44:44.194Z,7.22
2023-03-18T22:47:14.674Z,9.85
2023-03-18T22:49:43.517Z,6.20
2023-03-18T22:52:15.246Z,6.17
2023-03-18T22:54:42.873Z,7.45
2023-03-18T22:57:14.743Z,7.47
2023-03-18T22:59:42.211Z,7.20
2023-03-18T23:02:14.560Z,7.95
2023-03-18T23:04:43.366Z,9.45
2023-03-18T23:07:21.512Z,8.43
2023-03-18T23:09:56.414Z,9.60
2023-03-18T23:12:25.650Z,11.77
2023-03-18T23:14:53.691Z,11.95
2023-03-18T23:17:22.450Z,10.88
2023-03-18T23:19:51.544Z,9.73
2023-03-18T23:22:22.568Z,10.43
2023-03-18T23:24:49.961Z,11.48
2023-03-18T23:27:17.543Z,11.63
2023-03-18T23:29:45.023Z,11.40
2023-03-18T23:32:12.520Z,10.68
2023-03-18T23:34:39.966Z,11.23
2023-03-18T23:37:09.738Z,10.45
2023-03-18T23:39:42.769Z,13.23
2023-03-18T23:42:11.421Z,12.50
2023-03-18T23:44:38.935Z,10.90
2023-03-18T23:47:06.782Z,10.70
2023-03-18T23:49:34.446Z,11.50
2023-03-18T23:52:01.881Z,12.90
2023-03-18T23:54:30.715Z,11.13
2023-03-18T23:56:58.191Z,14.77
2023-03-18T23:59:25.880Z,12.73
